createdAt,value
2022-12-19T00:01:26.772Z,6.42
2022-12-19T00:04:35.135Z,6.18
2022-12-19T00:07:41.546Z,6.27
2022-12-19T00:10:56.783Z,6.41
2022-12-19T00:14:03.361Z,6.12
2022-12-19T00:17:09.521Z,5.90
2022-12-19T00:20:17.779Z,6.16
2022-12-19T00:23:24.967Z,6.10
2022-12-19T00:26:32.598Z,5.97
2022-12-19T00:29:38.677Z,5.91
2022-12-19T00:32:45.130Z,5.89
2022-12-19T00:35:58.120Z,5.92
2022-12-19T00:39:08.488Z,5.77
2022-12-19T00:42:14.820Z,6.01
2022-12-19T00:45:21.224Z,6.02
2022-12-19T00:48:27.289Z,5.88
2022-12-19T00:51:36.726Z,5.77
2022-12-19T00:54:43.055Z,6.02
2022-12-19T00:57:49.267Z,6.01
2022-12-19T01:00:55.777Z,5.80
2022-12-19T01:07:31.337Z,5.75
2022-12-19T01:10:37.617Z,5.80
2022-12-19T01:13:43.284Z,5.93
2022-12-19T01:16:49.674Z,5.67
2022-12-19T01:19:56.081Z,6.00
2022-12-19T01:23:03.690Z,5.55
2022-12-19T01:26:10.325Z,5.66
2022-12-19T01:29:16.624Z,5.41
2022-12-19T01:32:23.583Z,5.21
2022-12-19T01:35:30.146Z,5.61
2022-12-19T01:38:38.653Z,5.49
2022-12-19T01:41:44.923Z,5.38
2022-12-19T01:45:40.947Z,5.61
2022-12-19T01:48:52.169Z,5.41
2022-12-19T01:52:02.488Z,5.39
2022-12-19T01:55:11.985Z,5.28
2022-12-19T01:58:18.886Z,5.30
2022-12-19T02:01:26.093Z,5.27
2022-12-19T02:04:33.759Z,5.38
2022-12-19T02:07:41.183Z,5.22
2022-12-19T02:10:48.613Z,5.54
2022-12-19T02:13:55.131Z,5.37
2022-12-19T02:17:10.196Z,5.51
2022-12-19T02:20:46.509Z,5.81
2022-12-19T02:24:35.948Z,5.31
2022-12-19T02:28:08.107Z,5.28
2022-12-19T02:31:21.286Z,5.26
2022-12-19T02:34:33.853Z,5.43
2022-12-19T02:37:48.189Z,5.08
2022-12-19T02:41:02.058Z,5.22
2022-12-19T02:44:08.524Z,5.06
2022-12-19T02:47:17.927Z,5.12
2022-12-19T02:50:24.378Z,5.03
2022-12-19T02:53:30.645Z,4.93
2022-12-19T02:56:47.928Z,4.87
2022-12-19T03:00:03.646Z,4.86
2022-12-19T03:03:16.745Z,4.57
2022-12-19T03:06:27.895Z,4.66
2022-12-19T03:09:41.592Z,4.43
2022-12-19T03:12:53.332Z,4.89
2022-12-19T03:16:00.615Z,4.68
2022-12-19T03:19:11.132Z,4.44
2022-12-19T03:22:17.545Z,4.69
2022-12-19T03:25:25.678Z,4.78
2022-12-19T03:28:43.142Z,4.73
2022-12-19T03:31:50.283Z,4.83
2022-12-19T03:35:04.525Z,4.51
2022-12-19T03:38:12.397Z,4.42
2022-12-19T03:41:42.699Z,4.94
2022-12-19T03:44:50.722Z,4.58
2022-12-19T03:48:00.744Z,4.91
2022-12-19T03:51:15.211Z,4.86
2022-12-19T03:54:26.692Z,5.19
2022-12-19T03:57:39.187Z,4.81
2022-12-19T04:00:48.468Z,4.62
2022-12-19T04:03:56.012Z,5.12
2022-12-19T04:07:05.403Z,4.77
2022-12-19T04:10:16.018Z,5.03
2022-12-19T04:13:27.736Z,4.98
2022-12-19T04:16:40.986Z,4.92
2022-12-19T04:19:52.419Z,4.93
2022-12-19T04:23:05.802Z,4.81
2022-12-19T04:26:14.927Z,4.47
2022-12-19T04:29:21.581Z,4.56
2022-12-19T04:32:30.669Z,4.42
2022-12-19T04:35:37.010Z,4.64
2022-12-19T04:38:45.182Z,4.85
2022-12-19T04:41:51.319Z,4.74
2022-12-19T04:44:57.553Z,4.69
2022-12-19T04:48:03.864Z,4.95
2022-12-19T04:51:09.979Z,5.21
2022-12-19T04:54:17.622Z,4.75
2022-12-19T04:57:24.133Z,4.59
2022-12-19T05:00:30.371Z,5.05
2022-12-19T05:03:37.160Z,5.17
2022-12-19T05:06:43.598Z,4.70
2022-12-19T05:09:51.499Z,4.79
2022-12-19T05:12:57.790Z,5.03
2022-12-19T05:16:06.937Z,5.20
2022-12-19T05:19:13.172Z,4.87
2022-12-19T05:22:19.452Z,5.09
2022-12-19T05:25:27.585Z,5.03
2022-12-19T05:28:34.400Z,4.41
2022-12-19T05:31:41.015Z,4.64
2022-12-19T05:34:47.196Z,4.69
2022-12-19T05:37:53.956Z,4.79
2022-12-19T05:41:01.860Z,4.67
2022-12-19T05:44:08.190Z,4.59
2022-12-19T05:47:14.595Z,4.70
2022-12-19T05:50:21.279Z,4.46
2022-12-19T05:53:28.737Z,4.62
2022-12-19T05:56:36.671Z,4.47
2022-12-19T05:59:43.190Z,4.51
2022-12-19T06:02:49.916Z,4.83
2022-12-19T06:05:56.844Z,4.57
2022-12-19T06:09:03.601Z,4.59
2022-12-19T06:12:11.374Z,4.24
2022-12-19T06:15:17.869Z,4.28
2022-12-19T06:18:23.917Z,4.29
2022-12-19T06:21:30.218Z,4.55
2022-12-19T06:24:36.324Z,4.54
2022-12-19T06:27:44.088Z,4.27
2022-12-19T06:30:50.174Z,4.09
2022-12-19T06:33:57.172Z,4.32
2022-12-19T06:37:07.973Z,4.36
2022-12-19T06:40:34.786Z,4.56
2022-12-19T06:43:41.539Z,4.95
2022-12-19T06:46:47.643Z,4.44
2022-12-19T06:49:54.923Z,4.96
2022-12-19T06:53:01.267Z,4.61
2022-12-19T06:56:08.840Z,4.77
2022-12-19T06:59:17.582Z,5.26
2022-12-19T07:02:29.828Z,5.17
2022-12-19T07:05:36.548Z,4.75
2022-12-19T07:08:42.798Z,5.26
2022-12-19T07:11:49.188Z,5.40
2022-12-19T07:14:56.734Z,5.31
2022-12-19T07:18:06.987Z,5.01
2022-12-19T07:21:13.764Z,5.11
2022-12-19T07:24:20.219Z,4.92
2022-12-19T07:27:33.799Z,5.41
2022-12-19T07:30:43.482Z,5.34
2022-12-19T07:33:50.002Z,5.46
2022-12-19T07:36:56.259Z,5.11
2022-12-19T07:40:03.041Z,5.50
2022-12-19T07:43:09.337Z,5.19
2022-12-19T07:46:17.256Z,5.36
2022-12-19T07:49:23.747Z,4.96
2022-12-19T07:52:30.315Z,5.32
2022-12-19T07:55:37.066Z,5.68
2022-12-19T07:58:44.704Z,5.64
2022-12-19T08:18:22.616Z,5.75
2022-12-19T08:21:30.483Z,5.74
2022-12-19T08:24:36.786Z,5.84
2022-12-19T08:27:43.232Z,6.14
2022-12-19T08:30:49.318Z,6.04
2022-12-19T08:33:58.127Z,5.41
2022-12-19T08:37:04.095Z,5.29
2022-12-19T08:40:11.161Z,5.90
2022-12-19T08:43:17.328Z,5.75
2022-12-19T08:46:23.863Z,5.21
2022-12-19T08:49:31.399Z,5.85
2022-12-19T08:52:37.806Z,5.44
2022-12-19T08:55:43.871Z,5.39
2022-12-19T08:58:52.936Z,5.74
2022-12-19T09:01:59.110Z,5.38
2022-12-19T09:06:00.651Z,5.52
2022-12-19T09:08:35.776Z,6.05
2022-12-19T09:11:45.756Z,5.92
2022-12-19T09:14:54.398Z,5.78
2022-12-19T09:18:00.534Z,6.41
2022-12-19T09:21:09.016Z,6.14
2022-12-19T09:24:14.956Z,5.93
2022-12-19T09:27:21.126Z,5.95
2022-12-19T09:30:27.070Z,6.20
2022-12-19T09:33:41.224Z,6.33
2022-12-19T09:36:50.748Z,5.90
2022-12-19T09:39:58.821Z,6.18
2022-12-19T09:43:12.507Z,6.20
2022-12-19T09:46:20.519Z,6.66
2022-12-19T09:49:30.366Z,5.97
2022-12-19T09:52:43.795Z,6.38
2022-12-19T09:55:53.278Z,6.82
2022-12-19T09:59:03.728Z,6.89
2022-12-19T10:02:26.238Z,6.63
2022-12-19T10:06:08.685Z,6.75
2022-12-19T10:10:40.128Z,7.02
2022-12-19T10:13:03.635Z,6.47
2022-12-19T10:16:26.125Z,6.33
2022-12-19T10:19:44.700Z,6.43
2022-12-19T10:23:02.797Z,6.44
2022-12-19T10:26:17.649Z,6.78
2022-12-19T10:29:51.949Z,6.94
2022-12-19T10:33:07.036Z,6.16
2022-12-19T10:36:18.164Z,6.46
2022-12-19T10:39:31.757Z,6.62
2022-12-19T10:42:49.812Z,6.13
2022-12-19T10:46:00.579Z,6.27
2022-12-19T10:49:16.810Z,6.00
2022-12-19T10:52:48.302Z,6.09
2022-12-19T10:55:55.779Z,5.84
2022-12-19T10:59:03.977Z,6.10
2022-12-19T11:02:36.363Z,6.09
2022-12-19T11:05:48.331Z,6.01
2022-12-19T11:09:19.657Z,6.22
2022-12-19T11:16:30.307Z,6.22
2022-12-19T11:20:32.651Z,6.06
2022-12-19T11:29:26.554Z,6.20
2022-12-19T11:30:08.453Z,6.56
2022-12-19T11:30:43.938Z,5.86
2022-12-19T11:33:29.555Z,6.20
2022-12-19T11:36:40.698Z,6.08
2022-12-19T11:39:51.558Z,6.26
2022-12-19T11:43:43.174Z,6.27
2022-12-19T11:46:40.727Z,6.61
2022-12-19T11:49:54.991Z,6.47
2022-12-19T11:53:16.791Z,5.93
2022-12-19T11:56:27.955Z,5.83
2022-12-19T11:59:37.692Z,6.01
2022-12-19T12:03:35.772Z,5.92
2022-12-19T12:06:51.556Z,5.69
2022-12-19T12:13:54.276Z,5.73
2022-12-19T12:20:08.962Z,5.80
2022-12-19T12:31:10.364Z,6.49
2022-12-19T12:31:15.312Z,5.94
2022-12-19T12:31:38.889Z,5.54
2022-12-19T12:31:39.144Z,6.35
2022-12-19T12:35:40.928Z,5.87
2022-12-19T12:39:24.295Z,5.85
2022-12-19T12:42:48.457Z,5.92
2022-12-19T12:45:55.004Z,5.73
2022-12-19T12:49:04.637Z,5.83
2022-12-19T12:52:16.888Z,5.85
2022-12-19T12:55:30.039Z,5.78
2022-12-19T12:59:22.585Z,5.74
2022-12-19T13:02:29.206Z,5.95
2022-12-19T13:05:52.260Z,5.43
2022-12-19T13:09:05.761Z,5.43
2022-12-19T13:12:39.999Z,5.49
2022-12-19T13:15:48.019Z,5.47
2022-12-19T13:19:05.523Z,5.41
2022-12-19T13:22:22.485Z,5.27
2022-12-19T13:25:50.356Z,5.19
2022-12-19T13:28:56.484Z,5.19
2022-12-19T13:32:16.148Z,5.28
2022-12-19T13:38:47.807Z,5.12
2022-12-19T13:39:54.908Z,5.15
2022-12-19T13:42:47.485Z,4.77
2022-12-19T13:45:55.657Z,4.61
2022-12-19T13:49:07.166Z,4.43
2022-12-19T13:52:14.383Z,4.67
2022-12-19T13:55:21.223Z,4.46
2022-12-19T13:58:29.926Z,4.48
2022-12-19T14:01:38.629Z,4.39
2022-12-19T14:04:47.208Z,4.81
2022-12-19T14:07:54.067Z,4.42
2022-12-19T14:11:31.385Z,4.57
2022-12-19T14:14:44.816Z,3.90
2022-12-19T14:17:51.849Z,4.09
2022-12-19T14:22:04.242Z,4.24
2022-12-19T14:24:42.651Z,4.36
2022-12-19T14:28:18.320Z,4.07
2022-12-19T14:31:21.552Z,4.21
2022-12-19T14:35:13.130Z,4.13
2022-12-19T14:39:24.815Z,4.26
2022-12-19T14:42:06.566Z,4.36
2022-12-19T14:54:03.654Z,4.12
2022-12-19T14:54:08.505Z,4.16
2022-12-19T14:54:50.269Z,4.50
2022-12-19T14:59:49.163Z,4.11
2022-12-19T15:02:57.399Z,4.39
2022-12-19T15:06:19.885Z,4.46
2022-12-19T15:11:03.773Z,4.68
2022-12-19T15:14:48.709Z,4.34
2022-12-19T15:17:03.416Z,4.00
2022-12-19T15:20:11.996Z,4.25
2022-12-19T15:23:22.319Z,4.18
2022-12-19T15:26:31.385Z,4.25
2022-12-19T15:29:38.938Z,4.01
2022-12-19T15:32:45.767Z,4.25
2022-12-19T15:35:52.478Z,3.86
2022-12-19T15:38:58.602Z,4.08
2022-12-19T15:45:31.891Z,3.74
2022-12-19T15:48:41.729Z,3.52
2022-12-19T15:51:48.700Z,3.87
2022-12-19T15:54:56.834Z,3.97
2022-12-19T15:58:07.612Z,3.72
2022-12-19T16:01:15.372Z,4.01
2022-12-19T16:04:22.468Z,3.53
2022-12-19T16:07:29.240Z,3.49
2022-12-19T16:10:36.059Z,3.69
2022-12-19T16:13:44.302Z,3.22
2022-12-19T16:16:55.536Z,3.53
2022-12-19T16:20:01.612Z,3.71
2022-12-19T16:23:08.005Z,3.87
2022-12-19T16:26:26.578Z,3.94
2022-12-19T16:29:32.661Z,3.56
2022-12-19T16:32:40.557Z,3.50
2022-12-19T16:36:04.617Z,3.27
2022-12-19T16:39:11.764Z,3.22
2022-12-19T16:42:19.458Z,3.83
2022-12-19T16:45:27.876Z,3.66
2022-12-19T16:48:36.103Z,3.59
2022-12-19T16:51:42.520Z,3.60
2022-12-19T16:54:48.773Z,3.25
2022-12-19T16:57:57.368Z,3.05
2022-12-19T17:01:03.458Z,3.24
2022-12-19T17:04:14.848Z,2.77
2022-12-19T17:07:21.328Z,3.19
2022-12-19T17:10:32.575Z,2.75
2022-12-19T17:13:38.904Z,2.97
2022-12-19T17:16:45.612Z,2.86
2022-12-19T17:19:53.462Z,2.80
2022-12-19T17:23:00.262Z,3.02
2022-12-19T17:26:06.814Z,3.08
2022-12-19T17:29:13.849Z,3.36
2022-12-19T17:32:24.054Z,2.98
2022-12-19T17:35:35.736Z,2.91
2022-12-19T17:38:42.131Z,3.21
2022-12-19T17:41:48.641Z,2.77
2022-12-19T17:44:54.748Z,2.89
2022-12-19T17:48:03.445Z,2.95
2022-12-19T17:51:13.088Z,2.83
2022-12-19T17:54:19.821Z,2.78
2022-12-19T17:57:27.020Z,2.65
2022-12-19T18:00:34.799Z,2.76
2022-12-19T18:03:41.092Z,2.85
2022-12-19T18:06:49.472Z,2.49
2022-12-19T18:09:55.472Z,2.66
2022-12-19T18:13:01.587Z,2.58
2022-12-19T18:16:13.124Z,2.84
2022-12-19T18:19:21.025Z,2.65
2022-12-19T18:22:28.577Z,2.90
2022-12-19T18:25:36.013Z,2.68
2022-12-19T18:28:43.175Z,2.32
2022-12-19T18:31:51.100Z,2.76
2022-12-19T18:34:57.324Z,2.36
2022-12-19T18:38:07.427Z,2.69
2022-12-19T18:41:13.896Z,2.60
2022-12-19T18:44:20.347Z,2.36
2022-12-19T18:47:26.785Z,2.42
2022-12-19T18:50:32.927Z,2.36
2022-12-19T18:53:40.579Z,2.18
2022-12-19T18:56:46.785Z,2.41
2022-12-19T18:59:52.814Z,2.49
2022-12-19T19:03:01.438Z,2.10
2022-12-19T19:06:18.667Z,2.03
2022-12-19T19:09:26.627Z,2.45
2022-12-19T19:12:33.340Z,2.49
2022-12-19T19:15:43.880Z,2.22
2022-12-19T19:18:53.340Z,2.26
2022-12-19T19:22:00.235Z,1.84
2022-12-19T19:25:09.220Z,1.92
2022-12-19T19:28:15.583Z,1.87
2022-12-19T19:31:26.312Z,2.26
2022-12-19T19:34:36.650Z,1.71
2022-12-19T19:37:44.883Z,1.79
2022-12-19T19:40:52.635Z,2.05
2022-12-19T19:43:59.952Z,1.87
2022-12-19T19:47:06.075Z,2.32
2022-12-19T19:50:13.319Z,2.06
2022-12-19T19:53:19.983Z,1.87
2022-12-19T19:56:27.656Z,2.01
2022-12-19T19:59:34.033Z,1.92
2022-12-19T20:02:40.486Z,1.76
2022-12-19T20:05:47.227Z,1.91
2022-12-19T20:08:53.784Z,1.72
2022-12-19T20:12:01.813Z,1.77
2022-12-19T20:15:10.126Z,1.74
2022-12-19T20:18:16.635Z,1.65
2022-12-19T20:21:24.692Z,2.01
2022-12-19T20:24:31.183Z,2.21
2022-12-19T20:27:38.931Z,1.37
2022-12-19T20:30:45.381Z,1.99
2022-12-19T20:33:53.324Z,1.53
2022-12-19T20:36:59.764Z,1.25
2022-12-19T20:40:08.107Z,1.71
2022-12-19T20:43:15.558Z,1.74
2022-12-19T20:46:22.939Z,1.68
2022-12-19T20:49:29.540Z,1.68
2022-12-19T20:52:36.073Z,1.44
2022-12-19T20:55:42.443Z,1.47
2022-12-19T20:58:50.482Z,1.11
2022-12-19T21:01:57.164Z,1.50
2022-12-19T21:05:03.773Z,1.31
2022-12-19T21:08:10.547Z,1.45
2022-12-19T21:11:17.168Z,1.38
2022-12-19T21:14:25.068Z,1.66
2022-12-19T21:17:31.332Z,1.83
2022-12-19T21:20:38.789Z,1.53
2022-12-19T21:23:45.517Z,1.71
2022-12-19T21:26:57.761Z,1.69
2022-12-19T21:30:06.541Z,1.84
2022-12-19T21:33:13.066Z,1.76
2022-12-19T21:36:21.865Z,1.29
2022-12-19T21:39:27.973Z,1.24
2022-12-19T21:42:34.370Z,1.44
2022-12-19T21:45:42.219Z,1.18
2022-12-19T21:48:50.795Z,1.47
2022-12-19T21:51:57.076Z,1.28
2022-12-19T21:55:03.322Z,1.16
2022-12-19T21:58:09.670Z,1.14
2022-12-19T22:01:17.440Z,1.48
2022-12-19T22:04:26.659Z,1.36
2022-12-19T22:07:33.381Z,0.98
2022-12-19T22:10:39.831Z,1.00
2022-12-19T22:13:46.978Z,1.06
2022-12-19T22:16:54.831Z,0.89
2022-12-19T22:20:01.468Z,1.09
2022-12-19T22:23:12.898Z,0.89
2022-12-19T22:26:22.240Z,1.04
2022-12-19T22:29:28.628Z,0.78
2022-12-19T22:32:36.536Z,0.57
2022-12-19T22:35:43.718Z,0.97
2022-12-19T22:38:51.013Z,0.82
2022-12-19T22:41:57.529Z,1.33
2022-12-19T22:45:03.814Z,1.26
2022-12-19T22:48:11.676Z,1.43
2022-12-19T22:51:19.764Z,0.42
2022-12-19T22:54:26.318Z,0.85
2022-12-19T22:57:32.517Z,0.72
2022-12-19T23:00:39.489Z,0.41
2022-12-19T23:03:49.234Z,0.49
2022-12-19T23:06:55.880Z,0.31
2022-12-19T23:10:03.549Z,-0.12
2022-12-19T23:13:09.832Z,0.47
2022-12-19T23:16:16.251Z,0.21
2022-12-19T23:19:24.275Z,0.17
2022-12-19T23:22:30.832Z,-0.02
2022-12-19T23:25:39.376Z,-0.04
2022-12-19T23:28:51.336Z,-0.44
2022-12-19T23:31:57.786Z,-0.62
2022-12-19T23:35:06.001Z,-0.29
2022-12-19T23:38:12.487Z,-1.03
2022-12-19T23:41:18.692Z,-0.26
2022-12-19T23:44:25.039Z,-0.87
2022-12-19T23:47:31.345Z,-0.61
2022-12-19T23:50:39.258Z,-0.67
2022-12-19T23:53:46.662Z,-0.59
2022-12-19T23:56:53.649Z,-0.94
